createdAt,value
2019-02-07T00:00:56.588Z,40.37
2019-02-07T00:03:25.130Z,40.20
2019-02-07T00:05:53.796Z,39.00
2019-02-07T00:08:22.714Z,39.23
2019-02-07T00:10:51.307Z,38.53
2019-02-07T00:13:20.100Z,41.17
2019-02-07T00:15:48.655Z,38.23
2019-02-07T00:18:17.266Z,38.83
2019-02-07T00:20:46.031Z,41.47
2019-02-07T00:23:15.270Z,37.43
2019-02-07T00:25:43.809Z,40.37
2019-02-07T00:28:12.406Z,44.27
2019-02-07T00:30:41.268Z,37.87
2019-02-07T00:33:09.827Z,41.57
2019-02-07T00:35:38.359Z,39.03
2019-02-07T00:38:06.976Z,42.80
2019-02-07T00:40:35.754Z,45.17
2019-02-07T00:43:04.435Z,41.53
2019-02-07T00:45:32.901Z,41.20
2019-02-07T00:48:01.528Z,34.90
2019-02-07T00:50:31.153Z,41.13
2019-02-07T00:52:59.990Z,38.13
2019-02-07T00:55:28.575Z,38.27
2019-02-07T00:57:57.116Z,36.73
2019-02-07T01:00:26.999Z,38.87
2019-02-07T01:02:55.851Z,36.23
2019-02-07T01:05:24.647Z,40.93
2019-02-07T01:07:53.448Z,39.03
2019-02-07T01:10:27.294Z,34.97
2019-02-07T01:12:57.229Z,43.60
2019-02-07T01:15:27.482Z,37.03
2019-02-07T01:17:56.151Z,47.83
2019-02-07T01:20:24.672Z,35.77
2019-02-07T01:22:53.771Z,33.83
2019-02-07T01:25:23.362Z,40.83
2019-02-07T01:27:52.198Z,42.20
2019-02-07T01:30:25.423Z,38.53
2019-02-07T01:32:54.106Z,36.00
2019-02-07T01:35:22.704Z,40.10
2019-02-07T01:37:51.845Z,37.80
2019-02-07T01:40:21.401Z,28.87
2019-02-07T01:42:50.092Z,33.43
2019-02-07T01:45:21.256Z,33.77
2019-02-07T01:47:50.627Z,32.40
2019-02-07T01:50:22.227Z,29.40
2019-02-07T01:52:51.389Z,28.97
2019-02-07T01:55:20.522Z,28.93
2019-02-07T01:57:49.215Z,27.33
2019-02-07T02:00:19.166Z,25.87
2019-02-07T02:02:47.831Z,28.53
2019-02-07T02:05:18.031Z,24.97
2019-02-07T02:07:47.340Z,26.97
2019-02-07T02:10:21.167Z,23.43
2019-02-07T02:12:50.144Z,22.47
2019-02-07T02:15:24.739Z,25.10
2019-02-07T02:17:51.160Z,24.53
2019-02-07T02:20:22.193Z,24.60
2019-02-07T02:22:51.227Z,22.43
2019-02-07T02:25:20.306Z,22.30
2019-02-07T02:27:49.083Z,21.77
2019-02-07T02:30:20.678Z,23.20
2019-02-07T02:32:49.315Z,22.23
2019-02-07T02:35:18.366Z,21.37
2019-02-07T02:37:47.000Z,16.90
2019-02-07T02:40:15.803Z,16.80
2019-02-07T02:42:44.472Z,17.30
2019-02-07T02:45:18.844Z,16.43
2019-02-07T02:47:47.653Z,17.33
2019-02-07T02:50:18.504Z,17.57
2019-02-07T02:52:47.268Z,19.47
2019-02-07T02:55:32.472Z,19.10
2019-02-07T02:58:02.598Z,20.13
2019-02-07T03:00:35.690Z,21.57
2019-02-07T03:03:24.829Z,22.07
2019-02-07T03:05:57.900Z,21.17
2019-02-07T03:08:28.175Z,22.93
2019-02-07T03:10:58.653Z,22.23
2019-02-07T03:16:37.283Z,21.67
2019-02-07T03:19:24.003Z,20.87
2019-02-07T03:22:10.773Z,20.67
2019-02-07T03:24:41.047Z,20.43
2019-02-07T03:27:29.450Z,20.23
2019-02-07T03:29:59.662Z,20.30
2019-02-07T03:32:45.905Z,19.43
2019-02-07T03:35:18.911Z,18.87
2019-02-07T03:37:54.876Z,19.50
2019-02-07T03:40:25.183Z,20.20
2019-02-07T03:43:10.684Z,20.93
2019-02-07T03:45:43.864Z,22.90
2019-02-07T03:48:16.802Z,24.97
2019-02-07T03:50:49.798Z,27.20
2019-02-07T03:53:35.270Z,28.10
2019-02-07T03:56:10.400Z,28.13
2019-02-07T04:02:04.246Z,28.60
2019-02-07T04:04:49.416Z,27.93
2019-02-07T04:07:28.304Z,29.67
2019-02-07T04:10:00.990Z,30.87
2019-02-07T04:12:31.091Z,28.53
2019-02-07T04:15:04.028Z,27.83
2019-02-07T04:17:49.491Z,29.17
2019-02-07T04:20:23.083Z,30.00
2019-02-07T04:22:59.052Z,28.10
2019-02-07T04:25:34.987Z,30.27
2019-02-07T04:28:07.961Z,30.83
2019-02-07T04:30:56.398Z,28.40
2019-02-07T04:33:28.997Z,27.70
2019-02-07T04:36:15.728Z,28.67
2019-02-07T04:39:02.095Z,28.60
2019-02-07T04:41:48.361Z,27.53
2019-02-07T04:44:27.522Z,27.37
2019-02-07T04:47:09.719Z,27.00
2019-02-07T04:49:49.279Z,32.37
2019-02-07T04:52:34.714Z,28.27
2019-02-07T04:55:17.233Z,30.83
2019-02-07T04:57:47.495Z,25.43
2019-02-07T05:00:18.867Z,27.13
2019-02-07T05:02:49.029Z,26.77
2019-02-07T05:05:22.165Z,27.47
2019-02-07T05:07:58.522Z,27.27
2019-02-07T05:10:40.608Z,26.43
2019-02-07T05:13:19.293Z,28.30
2019-02-07T05:15:52.243Z,31.63
2019-02-07T05:18:38.776Z,39.87
2019-02-07T05:21:17.907Z,41.80
2019-02-07T05:24:04.503Z,27.70
2019-02-07T05:26:37.153Z,30.87
2019-02-07T05:29:07.540Z,36.57
2019-02-07T05:31:40.195Z,32.53
2019-02-07T05:34:26.923Z,39.80
2019-02-07T05:36:57.089Z,29.17
2019-02-07T05:39:43.684Z,30.00
2019-02-07T05:42:16.816Z,37.37
2019-02-07T05:44:47.470Z,32.27
2019-02-07T05:47:17.657Z,41.90
2019-02-07T05:49:47.756Z,27.57
2019-02-07T05:52:20.947Z,33.77
2019-02-07T05:55:07.543Z,36.90
2019-02-07T05:57:53.249Z,32.00
2019-02-07T06:00:26.524Z,32.80
2019-02-07T06:02:56.709Z,37.10
2019-02-07T06:05:37.499Z,35.20
2019-02-07T06:08:13.835Z,30.67
2019-02-07T06:11:00.385Z,33.23
2019-02-07T06:13:39.649Z,32.27
2019-02-07T06:16:09.893Z,34.47
2019-02-07T06:18:56.355Z,34.03
2019-02-07T06:21:29.495Z,32.03
2019-02-07T06:24:11.511Z,27.80
2019-02-07T06:26:50.457Z,27.57
2019-02-07T06:29:23.260Z,25.93
2019-02-07T06:31:53.745Z,29.07
2019-02-07T06:34:40.686Z,25.43
2019-02-07T06:37:17.073Z,26.00
2019-02-07T06:39:50.022Z,28.43
2019-02-07T06:42:23.147Z,24.63
2019-02-07T06:44:53.324Z,22.83
2019-02-07T06:47:23.586Z,23.37
2019-02-07T06:50:02.654Z,23.87
2019-02-07T06:52:42.353Z,22.50
2019-02-07T06:55:18.665Z,24.90
2019-02-07T06:58:00.583Z,22.27
2019-02-07T07:00:36.315Z,17.10
2019-02-07T07:03:09.534Z,17.13
2019-02-07T07:05:42.349Z,15.13
2019-02-07T07:08:18.620Z,14.33
2019-02-07T07:10:51.628Z,13.63
2019-02-07T07:13:21.824Z,14.83
2019-02-07T07:16:10.203Z,14.03
2019-02-07T07:18:56.721Z,12.93
2019-02-07T07:21:37.428Z,12.93
2019-02-07T07:24:24.060Z,14.20
2019-02-07T07:27:00.705Z,12.23
2019-02-07T07:29:36.732Z,13.30
2019-02-07T07:32:22.665Z,11.77
2019-02-07T07:34:53.127Z,10.63
2019-02-07T07:37:25.795Z,11.00
2019-02-07T07:39:55.897Z,11.07
2019-02-07T07:42:42.632Z,10.50
2019-02-07T07:45:16.415Z,9.97
2019-02-07T07:47:49.644Z,10.07
2019-02-07T07:50:22.420Z,10.40
2019-02-07T07:53:07.687Z,9.30
2019-02-07T07:55:52.683Z,9.57
2019-02-07T07:58:29.134Z,10.77
2019-02-07T08:01:04.975Z,10.30
2019-02-07T08:03:35.686Z,10.23
2019-02-07T08:06:06.484Z,9.57
2019-02-07T08:08:45.781Z,9.27
2019-02-07T08:11:27.764Z,9.60
2019-02-07T08:13:58.536Z,10.00
2019-02-07T08:16:34.372Z,8.93
2019-02-07T08:19:21.089Z,9.73
2019-02-07T08:21:53.884Z,8.63
2019-02-07T08:24:27.007Z,8.87
2019-02-07T08:27:13.169Z,9.60
2019-02-07T08:29:45.977Z,9.40
2019-02-07T08:32:19.076Z,9.17
2019-02-07T08:35:05.483Z,9.70
2019-02-07T08:38:06.824Z,9.20
2019-02-07T08:40:40.193Z,9.30
2019-02-07T08:43:22.283Z,9.73
2019-02-07T08:46:07.335Z,9.43
2019-02-07T08:48:53.681Z,9.87
2019-02-07T08:51:23.875Z,11.07
2019-02-07T08:54:03.029Z,11.00
2019-02-07T08:56:41.802Z,11.93
2019-02-07T08:59:18.002Z,12.77
2019-02-07T09:01:51.044Z,12.47
2019-02-07T09:04:26.816Z,12.70
2019-02-07T09:07:13.225Z,12.67
2019-02-07T09:09:43.350Z,13.23
2019-02-07T09:12:16.142Z,13.87
2019-02-07T09:14:55.402Z,14.53
2019-02-07T09:17:25.572Z,15.67
2019-02-07T09:19:58.124Z,17.00
2019-02-07T09:22:30.869Z,17.67
2019-02-07T09:25:23.902Z,18.53
2019-02-07T09:28:12.203Z,19.47
2019-02-07T09:31:00.743Z,21.10
2019-02-07T09:33:46.689Z,23.33
2019-02-07T09:36:26.296Z,24.33
2019-02-07T09:39:11.573Z,24.20
2019-02-07T09:41:42.063Z,26.37
2019-02-07T09:44:14.863Z,27.47
2019-02-07T09:49:37.072Z,26.23
2019-02-07T09:52:16.536Z,27.27
2019-02-07T09:54:49.464Z,27.73
2019-02-07T09:57:22.248Z,28.20
2019-02-07T10:00:04.486Z,29.63
2019-02-07T10:02:46.549Z,27.87
2019-02-07T10:05:17.232Z,27.73
2019-02-07T10:07:53.077Z,28.53
2019-02-07T10:10:38.468Z,28.07
2019-02-07T10:13:24.740Z,27.57
2019-02-07T10:16:10.300Z,28.20
2019-02-07T10:18:56.659Z,27.50
2019-02-07T10:21:32.680Z,28.97
2019-02-07T10:24:08.597Z,28.07
2019-02-07T10:26:41.753Z,27.73
2019-02-07T10:29:11.857Z,28.40
2019-02-07T10:31:45.075Z,28.00
2019-02-07T10:34:31.185Z,27.23
2019-02-07T10:37:14.079Z,27.37
2019-02-07T10:39:47.777Z,27.47
2019-02-07T10:42:34.291Z,28.23
2019-02-07T10:48:00.283Z,25.43
2019-02-07T10:50:46.881Z,26.00
2019-02-07T10:53:26.031Z,24.43
2019-02-07T10:55:58.783Z,26.13
2019-02-07T10:58:44.044Z,25.03
2019-02-07T11:01:17.751Z,24.60
2019-02-07T11:03:54.496Z,24.60
2019-02-07T11:06:24.591Z,23.10
2019-02-07T11:09:09.780Z,23.73
2019-02-07T11:11:45.928Z,22.77
2019-02-07T11:14:29.403Z,23.30
2019-02-07T11:17:14.412Z,20.63
2019-02-07T11:19:44.699Z,21.57
2019-02-07T11:22:23.821Z,19.33
2019-02-07T11:25:10.371Z,18.63
2019-02-07T11:27:52.515Z,18.23
2019-02-07T11:30:34.745Z,18.53
2019-02-07T11:33:04.915Z,18.10
2019-02-07T11:35:51.336Z,17.70
2019-02-07T11:38:39.801Z,17.30
2019-02-07T11:41:15.852Z,19.00
2019-02-07T11:43:54.647Z,18.03
2019-02-07T11:46:37.294Z,16.80
2019-02-07T11:49:07.162Z,17.13
2019-02-07T11:51:54.020Z,16.67
2019-02-07T11:54:32.917Z,15.73
2019-02-07T11:57:03.151Z,15.47
2019-02-07T11:59:49.832Z,15.57
2019-02-07T12:02:25.861Z,16.40
2019-02-07T12:05:17.141Z,16.27
2019-02-07T12:08:02.443Z,16.67
2019-02-07T12:10:38.351Z,17.23
2019-02-07T12:13:14.653Z,14.77
2019-02-07T12:15:50.661Z,14.77
2019-02-07T12:18:38.044Z,15.27
2019-02-07T12:21:13.963Z,14.70
2019-02-07T12:23:53.123Z,14.87
2019-02-07T12:26:23.564Z,14.47
2019-02-07T12:28:53.658Z,13.50
2019-02-07T12:31:40.143Z,12.83
2019-02-07T12:34:11.904Z,12.77
2019-02-07T12:36:45.067Z,13.13
2019-02-07T12:39:15.332Z,13.83
2019-02-07T12:41:48.189Z,14.20
2019-02-07T12:44:30.285Z,13.40
2019-02-07T12:47:17.059Z,13.67
2019-02-07T12:50:03.625Z,13.87
2019-02-07T12:52:39.652Z,13.20
2019-02-07T12:55:23.195Z,14.03
2019-02-07T12:57:55.007Z,13.47
2019-02-07T13:00:28.097Z,14.10
2019-02-07T13:03:03.781Z,14.27
2019-02-07T13:05:48.891Z,13.73
2019-02-07T13:08:18.995Z,13.90
2019-02-07T13:10:49.226Z,15.10
2019-02-07T13:13:28.438Z,15.53
2019-02-07T13:16:07.176Z,15.70
2019-02-07T13:18:38.479Z,13.83
2019-02-07T13:21:14.373Z,15.10
2019-02-07T13:23:47.501Z,15.30
2019-02-07T13:26:17.632Z,14.60
2019-02-07T13:28:56.664Z,14.63
2019-02-07T13:31:26.781Z,12.93
2019-02-07T13:34:06.378Z,14.50
2019-02-07T13:36:36.517Z,14.20
2019-02-07T13:39:17.723Z,14.40
2019-02-07T13:41:47.934Z,13.93
2019-02-07T13:44:33.668Z,13.10
2019-02-07T13:47:09.987Z,13.53
2019-02-07T13:49:52.133Z,14.37
2019-02-07T13:52:24.016Z,13.77
2019-02-07T13:54:57.155Z,13.70
2019-02-07T13:57:33.400Z,14.20
2019-02-07T14:00:03.570Z,13.37
2019-02-07T14:02:36.889Z,13.60
2019-02-07T14:05:12.489Z,13.20
2019-02-07T14:07:48.561Z,12.97
2019-02-07T14:10:25.001Z,12.33
2019-02-07T14:13:11.730Z,12.63
2019-02-07T14:15:42.044Z,13.17
2019-02-07T14:18:18.324Z,12.53
2019-02-07T14:21:04.940Z,12.57
2019-02-07T14:23:49.972Z,11.07
2019-02-07T14:26:32.119Z,11.37
2019-02-07T14:29:08.852Z,12.07
2019-02-07T14:31:39.020Z,12.00
2019-02-07T14:34:25.466Z,11.70
2019-02-07T14:37:13.838Z,12.27
2019-02-07T14:40:00.394Z,11.97
2019-02-07T14:42:33.297Z,11.07
2019-02-07T14:45:09.431Z,12.07
2019-02-07T14:47:37.960Z,12.23
2019-02-07T14:50:14.475Z,12.80
2019-02-07T14:52:38.072Z,12.73
2019-02-07T14:55:09.031Z,11.93
2019-02-07T14:57:37.964Z,13.00
2019-02-07T15:00:09.759Z,12.63
2019-02-07T15:02:38.355Z,13.17
2019-02-07T15:05:08.552Z,12.53
2019-02-07T15:07:37.307Z,12.83
2019-02-07T15:10:26.690Z,12.53
2019-02-07T15:12:55.341Z,12.77
2019-02-07T15:15:23.996Z,12.50
2019-02-07T15:17:52.460Z,13.00
2019-02-07T15:20:26.272Z,13.20
2019-02-07T15:22:51.377Z,13.80
2019-02-07T15:25:20.123Z,14.03
2019-02-07T15:27:48.716Z,13.40
2019-02-07T15:30:21.996Z,13.43
2019-02-07T15:32:50.523Z,14.17
2019-02-07T15:35:31.471Z,14.20
2019-02-07T15:38:00.286Z,14.40
2019-02-07T15:40:28.889Z,14.40
2019-02-07T15:42:58.192Z,15.23
2019-02-07T15:45:26.784Z,14.67
2019-02-07T15:47:55.463Z,15.87
2019-02-07T15:50:37.253Z,16.07
2019-02-07T15:52:58.170Z,16.13
2019-02-07T15:55:26.940Z,16.90
2019-02-07T15:57:55.746Z,17.80
2019-02-07T16:00:43.997Z,16.87
2019-02-07T16:03:17.620Z,17.87
2019-02-07T16:05:46.174Z,17.00
2019-02-07T16:08:14.725Z,16.93
2019-02-07T16:10:43.341Z,18.13
2019-02-07T16:13:12.235Z,18.70
2019-02-07T16:16:00.375Z,17.10
2019-02-07T16:18:28.933Z,16.87
2019-02-07T16:20:57.527Z,17.80
2019-02-07T16:23:26.272Z,17.90
2019-02-07T16:25:54.809Z,18.50
2019-02-07T16:28:23.338Z,16.87
2019-02-07T16:30:52.232Z,17.07
2019-02-07T16:33:20.860Z,17.00
2019-02-07T16:35:50.025Z,17.77
2019-02-07T16:38:18.652Z,16.93
2019-02-07T16:40:47.129Z,17.50
2019-02-07T16:43:15.712Z,17.40
2019-02-07T16:45:44.629Z,16.63
2019-02-07T16:48:13.217Z,16.70
2019-02-07T16:50:42.319Z,16.97
2019-02-07T16:53:10.831Z,16.93
2019-02-07T16:55:39.437Z,16.77
2019-02-07T16:58:08.171Z,17.77
2019-02-07T17:00:37.841Z,17.47
2019-02-07T17:03:07.275Z,17.37
2019-02-07T17:05:37.942Z,18.30
2019-02-07T17:08:06.792Z,17.60
2019-02-07T17:10:40.318Z,18.43
2019-02-07T17:13:28.454Z,17.50
2019-02-07T17:15:57.050Z,18.90
2019-02-07T17:18:25.844Z,17.43
2019-02-07T17:20:54.433Z,18.23
2019-02-07T17:23:22.966Z,18.70
2019-02-07T17:25:51.764Z,19.40
2019-02-07T17:28:20.439Z,18.87
2019-02-07T17:30:49.043Z,19.17
2019-02-07T17:33:17.499Z,20.33
2019-02-07T17:35:46.309Z,20.30
2019-02-07T17:38:14.909Z,20.47
2019-02-07T17:40:43.538Z,19.90
2019-02-07T17:43:12.506Z,20.47
2019-02-07T17:45:41.015Z,20.63
2019-02-07T17:48:09.713Z,20.77
2019-02-07T17:50:41.275Z,20.43
2019-02-07T17:53:11.755Z,20.07
2019-02-07T17:55:40.354Z,19.87
2019-02-07T17:58:10.106Z,19.37
2019-02-07T18:00:52.123Z,21.13
2019-02-07T18:03:20.728Z,20.63
2019-02-07T18:05:49.542Z,21.17
2019-02-07T18:08:19.012Z,21.27
2019-02-07T18:10:48.325Z,21.87
2019-02-07T18:13:16.782Z,21.87
2019-02-07T18:15:45.326Z,21.77
2019-02-07T18:18:13.888Z,21.63
2019-02-07T18:20:42.629Z,22.10
2019-02-07T18:23:11.279Z,21.77
2019-02-07T18:25:39.852Z,22.90
2019-02-07T18:28:08.623Z,21.87
2019-02-07T18:30:37.210Z,22.50
2019-02-07T18:33:14.688Z,21.90
2019-02-07T18:35:43.464Z,22.27
2019-02-07T18:38:12.112Z,22.10
2019-02-07T18:40:40.648Z,22.43
2019-02-07T18:46:14.625Z,23.20
2019-02-07T18:48:43.151Z,22.00
2019-02-07T18:51:11.680Z,21.40
2019-02-07T18:53:40.258Z,21.10
2019-02-07T18:56:08.786Z,22.10
2019-02-07T18:58:37.383Z,23.57
2019-02-07T19:01:06.066Z,21.33
2019-02-07T19:03:34.516Z,22.03
2019-02-07T19:06:03.322Z,22.60
2019-02-07T19:08:31.873Z,22.23
2019-02-07T19:11:00.414Z,22.80
2019-02-07T19:13:29.018Z,22.03
2019-02-07T19:15:59.297Z,22.70
2019-02-07T19:18:28.621Z,22.00
2019-02-07T19:20:57.178Z,22.17
2019-02-07T19:23:25.773Z,23.03
2019-02-07T19:25:54.383Z,23.40
2019-02-07T19:28:23.045Z,22.33
2019-02-07T19:30:51.655Z,21.17
2019-02-07T19:33:22.442Z,23.30
2019-02-07T19:35:50.371Z,23.00
2019-02-07T19:38:19.226Z,22.37
2019-02-07T19:40:47.836Z,21.70
2019-02-07T19:43:16.483Z,22.03
2019-02-07T19:45:45.046Z,22.30
2019-02-07T19:48:13.774Z,22.20
2019-02-07T19:50:42.339Z,23.57
2019-02-07T19:53:10.803Z,23.03
2019-02-07T19:55:39.614Z,22.80
2019-02-07T19:58:08.298Z,22.07
2019-02-07T20:00:39.318Z,22.57
2019-02-07T20:03:07.310Z,21.83
2019-02-07T20:05:35.846Z,22.20
2019-02-07T20:08:04.921Z,24.10
2019-02-07T20:10:33.864Z,21.40
2019-02-07T20:13:02.393Z,21.37
2019-02-07T20:15:33.442Z,20.17
2019-02-07T20:18:02.509Z,20.03
2019-02-07T20:20:31.598Z,20.07
2019-02-07T20:23:00.349Z,19.37
2019-02-07T20:25:29.071Z,19.37
2019-02-07T20:27:58.042Z,18.63
2019-02-07T20:30:37.482Z,19.30
2019-02-07T20:33:07.142Z,18.87
2019-02-07T20:35:35.678Z,18.53
2019-02-07T20:38:05.169Z,19.63
2019-02-07T20:40:33.728Z,20.03
2019-02-07T20:43:02.568Z,18.50
2019-02-07T20:45:31.359Z,17.97
2019-02-07T20:47:59.943Z,19.33
2019-02-07T20:50:29.421Z,18.57
2019-02-07T20:52:58.223Z,18.30
2019-02-07T20:55:27.297Z,18.50
2019-02-07T20:57:56.101Z,18.93
2019-02-07T21:00:27.553Z,18.50
2019-02-07T21:02:56.268Z,17.40
2019-02-07T21:05:25.680Z,16.90
2019-02-07T21:07:54.291Z,17.30
2019-02-07T21:10:25.533Z,16.00
2019-02-07T21:12:54.078Z,16.27
2019-02-07T21:15:23.192Z,15.70
2019-02-07T21:17:51.811Z,15.37
2019-02-07T21:20:25.313Z,16.60
2019-02-07T21:22:54.964Z,15.47
2019-02-07T21:25:35.649Z,16.33
2019-02-07T21:28:05.306Z,16.30
2019-02-07T21:30:34.178Z,15.30
2019-02-07T21:33:02.787Z,15.13
2019-02-07T21:35:34.533Z,13.60
2019-02-07T21:38:03.715Z,14.13
2019-02-07T21:40:32.373Z,13.33
2019-02-07T21:43:01.104Z,13.83
2019-02-07T21:45:30.343Z,14.50
2019-02-07T21:48:00.079Z,14.57
2019-02-07T21:50:34.606Z,15.10
2019-02-07T21:53:03.158Z,13.70
2019-02-07T21:55:36.853Z,14.77
2019-02-07T21:58:07.218Z,14.90
2019-02-07T22:00:46.070Z,14.17
2019-02-07T22:03:15.096Z,14.07
2019-02-07T22:05:43.773Z,14.00
2019-02-07T22:08:12.448Z,13.37
2019-02-07T22:10:41.060Z,13.17
2019-02-07T22:13:10.045Z,12.87
2019-02-07T22:15:38.793Z,11.43
2019-02-07T22:18:07.804Z,11.47
2019-02-07T22:20:36.380Z,11.77
2019-02-07T22:23:05.623Z,11.40
2019-02-07T22:25:34.333Z,11.17
2019-02-07T22:28:05.834Z,12.07
2019-02-07T22:30:36.411Z,12.43
2019-02-07T22:33:06.311Z,11.87
2019-02-07T22:35:34.975Z,11.70
2019-02-07T22:38:03.820Z,11.27
2019-02-07T22:40:32.455Z,11.00
2019-02-07T22:43:01.426Z,11.00
2019-02-07T22:45:30.172Z,10.20
2019-02-07T22:47:58.913Z,10.60
2019-02-07T22:50:31.063Z,9.23
2019-02-07T22:53:01.310Z,10.03
2019-02-07T22:55:30.317Z,8.90
2019-02-07T22:57:58.930Z,9.07
2019-02-07T23:00:37.832Z,9.17
2019-02-07T23:03:16.325Z,8.97
2019-02-07T23:05:44.923Z,9.10
2019-02-07T23:08:13.640Z,8.60
2019-02-07T23:10:42.589Z,8.73
2019-02-07T23:13:11.652Z,8.20
2019-02-07T23:15:40.418Z,7.87
2019-02-07T23:18:09.322Z,8.30
2019-02-07T23:20:38.022Z,7.77
2019-02-07T23:23:09.162Z,7.57
2019-02-07T23:25:38.129Z,7.03
2019-02-07T23:28:07.065Z,7.37
2019-02-07T23:30:35.782Z,6.33
2019-02-07T23:33:05.679Z,5.67
2019-02-07T23:35:34.290Z,5.77
2019-02-07T23:38:02.956Z,6.10
2019-02-07T23:40:31.615Z,6.13
2019-02-07T23:43:00.535Z,6.10
2019-02-07T23:45:29.087Z,6.00
2019-02-07T23:47:57.615Z,5.67
2019-02-07T23:50:26.351Z,5.03
2019-02-07T23:52:54.872Z,5.10
2019-02-07T23:55:23.395Z,4.73
2019-02-07T23:57:52.122Z,4.70
